Time;durP1;ratioP1;P1;durP2;ratioP2;P2;SDS_P1;SDS_P2;PMS_P1;PMS_P2;Temp;Humidity;BMP_temperature;BMP_pressure;BME280_temperature;BME280_humidity;BME280_pressure;Samples;Min_cycle;Max_cycle;Signal;HPM_P1;HPM_P2
2022/09/24 00:01:18;;;;;;;15.38;9.38;;;12.80;73.00;;;;;;5094466;28;20141;-13
2022/09/24 00:03:52;;;;;;;14.93;7.65;;;12.80;72.80;;;;;;5094662;28;20395;-13
2022/09/24 00:06:19;;;;;;;10.75;7.85;;;12.90;72.00;;;;;;5094753;28;20494;-13
2022/09/24 00:08:47;;;;;;;10.60;7.93;;;12.90;72.10;;;;;;5094408;28;20020;-13
2022/09/24 00:11:14;;;;;;;13.85;10.27;;;12.90;72.50;;;;;;5094799;28;20035;-13
2022/09/24 00:13:40;;;;;;;16.60;11.60;;;13.00;72.40;;;;;;5095060;28;20019;-13
2022/09/24 00:16:10;;;;;;;15.13;9.40;;;13.00;72.70;;;;;;5094441;28;20028;-14
2022/09/24 00:18:37;;;;;;;12.25;8.55;;;13.10;72.90;;;;;;5094617;28;20032;-14
2022/09/24 00:21:12;;;;;;;11.43;8.00;;;13.10;73.00;;;;;;5094060;28;20043;-13
2022/09/24 00:23:38;;;;;;;11.68;8.32;;;13.10;72.80;;;;;;5094144;28;20034;-13
2022/09/24 00:28:49;;;;;;;;;;;13.20;73.50;;;;;;5094030;28;20394;-12
2022/09/24 00:31:16;;;;;;;10.43;7.53;;;13.20;72.90;;;;;;5094444;28;19911;-13
2022/09/24 00:33:42;;;;;;;17.90;12.85;;;13.30;72.30;;;;;;5094032;28;20024;-13
2022/09/24 00:36:08;;;;;;;12.73;9.25;;;13.30;73.10;;;;;;5094334;28;20033;-13
2022/09/24 00:38:34;;;;;;;13.75;9.48;;;13.30;72.90;;;;;;5091819;28;20036;-14
2022/09/24 00:41:01;;;;;;;16.63;8.80;;;13.20;72.90;;;;;;5093846;28;20028;-14
2022/09/24 00:43:36;;;;;;;14.98;10.60;;;13.20;72.90;;;;;;5094208;28;20054;-14
2022/09/24 00:46:29;;;;;;;13.35;9.52;;;13.20;73.10;;;;;;5094240;28;20028;-13
2022/09/24 00:49:10;;;;;;;15.18;11.98;;;13.30;73.20;;;;;;5093719;28;20035;-13
2022/09/24 00:51:36;;;;;;;14.35;10.23;;;13.20;73.60;;;;;;5094004;28;20024;-13
2022/09/24 00:54:13;;;;;;;12.32;8.65;;;13.10;73.60;;;;;;5094007;28;20027;-13
2022/09/24 00:56:42;;;;;;;12.75;8.98;;;13.10;73.50;;;;;;5093952;28;20024;-13
2022/09/24 00:59:10;;;;;;;16.08;10.85;;;13.10;73.30;;;;;;5093331;28;20032;-13
2022/09/24 01:01:36;;;;;;;20.52;14.65;;;13.00;73.60;;;;;;5093591;28;20024;-13
2022/09/24 01:04:03;;;;;;;14.77;11.05;;;13.00;74.00;;;;;;5093525;28;20031;-14
2022/09/24 01:06:29;;;;;;;10.48;7.68;;;12.90;74.10;;;;;;5093493;28;20055;-13
2022/09/24 01:08:57;;;;;;;16.13;11.45;;;12.90;73.90;;;;;;5093111;28;20468;-13
2022/09/24 01:11:43;;;;;;;15.75;12.07;;;13.00;75.30;;;;;;5094072;28;20463;-13
2022/09/24 01:14:31;;;;;;;21.85;13.63;;;13.00;75.40;;;;;;5092967;28;20032;-13
2022/09/24 01:17:15;;;;;;;14.02;10.63;;;12.90;75.10;;;;;;5092963;28;20135;-13
2022/09/24 01:20:01;;;;;;;;;;;12.90;75.30;;;;;;5094165;28;20044;-11
2022/09/24 01:22:53;;;;;;;13.10;9.15;;;12.90;75.90;;;;;;5092945;28;19908;-10
2022/09/24 01:25:59;;;;;;;17.20;12.55;;;12.90;74.80;;;;;;5093301;28;20081;-12
2022/09/24 01:28:48;;;;;;;21.23;14.70;;;12.90;75.30;;;;;;5092111;28;20028;-12
2022/09/24 01:31:21;;;;;;;14.45;10.45;;;12.90;75.30;;;;;;5093270;28;20036;-11
2022/09/24 01:33:52;;;;;;;14.65;10.93;;;12.90;75.10;;;;;;5093327;28;20031;-11
2022/09/24 01:36:20;;;;;;;11.45;8.70;;;12.90;75.20;;;;;;5093239;28;20081;-11
2022/09/24 01:42:09;;;;;;;15.18;11.55;;;13.00;75.00;;;;;;5093309;28;20024;-12
2022/09/24 01:44:37;;;;;;;19.13;13.07;;;13.00;75.10;;;;;;5093421;28;20020;-12
2022/09/24 01:47:07;;;;;;;13.20;10.05;;;13.00;75.10;;;;;;5093532;28;20464;-11
2022/09/24 01:49:32;;;;;;;13.10;8.65;;;13.00;75.20;;;;;;5093598;28;20028;-12
2022/09/24 01:52:03;;;;;;;14.77;10.48;;;13.00;75.00;;;;;;5098163;28;20036;-13
2022/09/24 01:54:34;;;;;;;11.63;8.95;;;13.00;74.80;;;;;;5097765;28;20464;-12
2022/09/24 01:57:32;;;;;;;13.43;10.15;;;13.00;74.80;;;;;;5097594;28;20460;-12
2022/09/24 02:00:08;;;;;;;15.70;9.45;;;13.10;74.80;;;;;;5091339;28;20073;-12
2022/09/24 02:02:57;;;;;;;15.93;11.25;;;13.10;74.80;;;;;;5097061;28;20031;-12
2022/09/24 02:05:33;;;;;;;12.70;9.80;;;13.10;75.20;;;;;;5097194;28;20076;-12
2022/09/24 02:08:15;;;;;;;13.07;9.52;;;13.10;75.10;;;;;;5097009;28;20032;-11
2022/09/24 02:10:54;;;;;;;12.32;8.32;;;13.10;74.90;;;;;;5096869;28;20537;-12
2022/09/24 02:13:23;;;;;;;12.25;9.75;;;13.20;74.70;;;;;;5096819;28;20069;-12
2022/09/24 02:15:56;;;;;;;13.70;10.23;;;13.20;75.00;;;;;;5096933;28;20031;-12
2022/09/24 02:18:28;;;;;;;13.35;10.25;;;13.20;74.70;;;;;;5095391;28;20032;-12
2022/09/24 02:20:55;;;;;;;13.48;9.85;;;13.20;75.00;;;;;;5096389;28;20388;-12
2022/09/24 02:23:23;;;;;;;13.00;9.43;;;13.20;75.00;;;;;;5096478;28;20024;-12
2022/09/24 02:25:56;;;;;;;11.48;8.48;;;13.20;74.80;;;;;;5096823;28;20089;-13
2022/09/24 02:28:23;;;;;;;14.23;10.40;;;13.20;74.70;;;;;;5097120;28;20028;-12
2022/09/24 02:31:03;;;;;;;17.20;12.95;;;13.20;74.90;;;;;;5096237;28;20051;-12
2022/09/24 02:36:17;;;;;;;15.15;11.40;;;13.10;75.10;;;;;;5096485;28;20563;-12
2022/09/24 02:38:45;;;;;;;14.25;9.68;;;13.10;75.30;;;;;;5096144;28;20032;-12
2022/09/24 02:41:13;;;;;;;14.77;11.13;;;13.00;75.10;;;;;;5096006;28;20076;-13
2022/09/24 02:43:39;;;;;;;13.05;8.70;;;13.00;75.40;;;;;;5096475;28;20036;-13
2022/09/24 02:46:09;;;;;;;14.52;9.18;;;13.00;75.30;;;;;;5096112;28;20032;-13
2022/09/24 02:48:36;;;;;;;14.00;9.38;;;13.00;75.10;;;;;;5096359;28;20016;-12
2022/09/24 02:51:03;;;;;;;16.42;11.32;;;13.00;75.20;;;;;;5096201;28;20024;-13
2022/09/24 02:53:30;;;;;;;15.07;10.52;;;13.10;75.10;;;;;;5095905;28;20031;-13
2022/09/24 02:55:57;;;;;;;14.52;9.95;;;13.00;75.10;;;;;;5096276;28;20024;-12
2022/09/24 02:58:24;;;;;;;12.73;9.43;;;13.00;75.10;;;;;;5095830;28;20552;-12
2022/09/24 03:00:50;;;;;;;13.05;9.98;;;13.10;75.20;;;;;;5095764;28;20399;-13
2022/09/24 03:03:16;;;;;;;14.88;10.05;;;13.00;75.30;;;;;;5095356;28;20020;-13
2022/09/24 03:05:42;;;;;;;18.42;10.70;;;13.10;75.50;;;;;;5096014;28;20464;-13
2022/09/24 03:08:07;;;;;;;14.93;11.80;;;13.10;75.20;;;;;;5095673;28;20020;-13
2022/09/24 03:10:33;;;;;;;17.48;12.82;;;13.10;75.20;;;;;;5096424;28;20030;-13
2022/09/24 03:12:59;;;;;;;19.52;14.43;;;13.10;75.20;;;;;;5095844;28;20104;-14
2022/09/24 03:15:25;;;;;;;15.27;11.65;;;13.10;75.60;;;;;;5095583;28;20046;-13
2022/09/24 03:17:51;;;;;;;18.92;13.38;;;13.10;75.40;;;;;;5094189;28;20036;-13
2022/09/24 03:20:17;;;;;;;18.33;11.90;;;13.20;75.40;;;;;;5095852;28;20017;-14
2022/09/24 03:22:43;;;;;;;17.75;12.73;;;13.10;75.40;;;;;;5095659;28;20024;-13
2022/09/24 03:25:09;;;;;;;20.58;14.18;;;13.20;75.40;;;;;;5094034;28;20395;-14
2022/09/24 03:27:35;;;;;;;20.85;14.00;;;13.20;75.50;;;;;;5095690;28;20059;-13
2022/09/24 03:32:47;;;;;;;13.68;9.93;;;13.30;75.50;;;;;;5095381;28;20038;-13
2022/09/24 03:35:14;;;;;;;14.20;9.82;;;13.30;75.40;;;;;;5095136;28;20531;-13
2022/09/24 03:37:42;;;;;;;13.35;9.23;;;13.40;75.50;;;;;;5094989;28;20387;-13
2022/09/24 03:40:08;;;;;;;13.77;10.25;;;13.40;75.30;;;;;;5095111;28;20449;-14
2022/09/24 03:42:34;;;;;;;19.08;13.75;;;13.40;75.60;;;;;;5095369;28;20031;-14
2022/09/24 03:45:00;;;;;;;14.13;10.32;;;13.40;75.40;;;;;;5094829;28;20498;-14
2022/09/24 03:47:26;;;;;;;11.65;8.88;;;13.30;75.70;;;;;;5094978;28;20031;-13
2022/09/24 03:49:52;;;;;;;12.88;9.90;;;13.30;75.60;;;;;;5093641;28;20039;-11
2022/09/24 03:52:18;;;;;;;11.57;9.02;;;13.30;75.60;;;;;;5095101;28;20035;-11
2022/09/24 03:54:44;;;;;;;12.45;8.32;;;13.40;75.50;;;;;;5094850;28;20100;-12
2022/09/24 03:57:13;;;;;;;13.35;9.45;;;13.40;75.40;;;;;;5094555;28;20067;-12
2022/09/24 03:59:41;;;;;;;14.40;9.70;;;13.40;75.70;;;;;;5094711;28;20038;-13
2022/09/24 04:02:08;;;;;;;13.30;10.23;;;13.40;75.90;;;;;;5095025;28;20031;-12
2022/09/24 04:04:34;;;;;;;13.10;9.23;;;13.40;76.50;;;;;;5094852;28;20062;-12
2022/09/24 04:07:00;;;;;;;15.40;10.82;;;13.40;76.10;;;;;;5094233;28;20075;-13
2022/09/24 04:09:26;;;;;;;15.93;12.50;;;13.40;76.60;;;;;;5094558;28;20020;-12
2022/09/24 04:11:52;;;;;;;16.67;11.10;;;13.40;78.10;;;;;;5094816;28;20028;-12
2022/09/24 04:14:19;;;;;;;16.10;11.73;;;13.30;78.40;;;;;;5094787;28;20032;-12
2022/09/24 04:16:45;;;;;;;13.68;10.13;;;13.30;77.70;;;;;;5094325;28;20052;-12
2022/09/24 04:19:12;;;;;;;14.45;10.88;;;13.20;77.00;;;;;;5094132;28;20028;-11
2022/09/24 04:21:38;;;;;;;12.15;9.00;;;13.20;77.20;;;;;;5094301;28;20028;-12
2022/09/24 04:24:04;;;;;;;11.98;8.57;;;13.10;77.00;;;;;;5094245;28;20104;-13
2022/09/24 04:26:30;;;;;;;15.00;11.18;;;13.10;76.80;;;;;;5094480;28;20030;-12
2022/09/24 04:28:58;;;;;;;12.57;9.50;;;13.10;76.80;;;;;;5093919;28;20099;-12
2022/09/24 04:31:26;;;;;;;14.23;9.80;;;13.00;76.90;;;;;;5094137;28;20030;-12
2022/09/24 04:33:54;;;;;;;16.23;12.13;;;13.00;76.70;;;;;;5094084;28;20460;-13
2022/09/24 04:36:20;;;;;;;14.75;11.15;;;13.00;76.90;;;;;;5094094;28;20069;-11
2022/09/24 04:38:46;;;;;;;16.38;12.13;;;12.90;77.20;;;;;;5094272;28;20032;-13
2022/09/24 04:41:15;;;;;;;14.85;11.10;;;12.90;77.30;;;;;;5094229;28;20388;-12
2022/09/24 04:43:42;;;;;;;20.23;15.10;;;12.80;77.40;;;;;;5093876;28;20020;-12
2022/09/24 04:46:08;;;;;;;15.63;12.00;;;12.80;77.30;;;;;;5094751;28;20456;-12
2022/09/24 04:48:38;;;;;;;15.48;11.57;;;12.70;77.60;;;;;;5094178;28;20027;-12
2022/09/24 04:51:06;;;;;;;12.75;9.27;;;12.70;77.80;;;;;;5094296;28;20024;-12
2022/09/24 04:53:35;;;;;;;13.20;8.95;;;12.60;77.90;;;;;;5093863;28;20019;-12
2022/09/24 04:56:02;;;;;;;12.25;9.40;;;12.60;77.90;;;;;;5093915;28;20476;-12
2022/09/24 04:58:29;;;;;;;13.38;9.70;;;12.70;77.90;;;;;;5093806;28;20035;-12
2022/09/24 05:00:56;;;;;;;12.52;9.07;;;12.70;78.00;;;;;;5093465;28;20487;-12
2022/09/24 05:03:22;;;;;;;13.50;10.50;;;12.70;77.80;;;;;;5093951;28;20024;-12
2022/09/24 05:05:51;;;;;;;13.00;10.07;;;12.70;77.60;;;;;;5093553;28;20024;-12
2022/09/24 05:08:17;;;;;;;14.02;10.05;;;12.80;77.60;;;;;;5093665;28;20081;-12
2022/09/24 05:10:43;;;;;;;11.30;8.65;;;12.80;77.90;;;;;;5093477;28;20031;-12
2022/09/24 05:13:09;;;;;;;12.85;9.50;;;12.90;77.70;;;;;;5093315;28;20058;-12
2022/09/24 05:15:35;;;;;;;14.88;10.68;;;12.90;77.90;;;;;;5093897;28;20070;-12
2022/09/24 05:18:00;;;;;;;12.40;9.80;;;12.90;78.10;;;;;;5093362;28;20051;-11
2022/09/24 05:20:27;;;;;;;10.88;8.30;;;12.90;78.20;;;;;;5093518;28;20488;-12
2022/09/24 05:22:53;;;;;;;12.60;10.18;;;13.00;77.60;;;;;;5093054;28;20038;-12
2022/09/24 05:25:22;;;;;;;12.43;9.77;;;13.00;77.60;;;;;;5093131;28;20036;-12
2022/09/24 05:27:50;;;;;;;14.27;10.02;;;13.10;77.30;;;;;;5093589;28;20093;-12
2022/09/24 05:30:17;;;;;;;17.15;10.38;;;13.10;77.20;;;;;;5093210;28;20070;-12
2022/09/24 05:32:43;;;;;;;15.70;11.13;;;13.20;77.20;;;;;;5093374;28;20441;-12
2022/09/24 05:35:09;;;;;;;15.00;11.32;;;13.20;77.40;;;;;;5093301;28;20036;-12
2022/09/24 05:37:37;;;;;;;13.45;8.93;;;13.30;77.50;;;;;;5093249;28;20032;-12
2022/09/24 05:42:50;;;;;;;17.92;12.82;;;13.40;77.20;;;;;;5093321;28;20082;-12
2022/09/24 05:45:17;;;;;;;16.85;11.68;;;13.40;78.10;;;;;;5093756;28;20032;-12
2022/09/24 05:47:45;;;;;;;16.70;10.57;;;13.50;78.40;;;;;;5093382;28;20024;-13
2022/09/24 05:50:12;;;;;;;15.80;11.52;;;13.50;78.10;;;;;;5093029;28;20441;-12
2022/09/24 05:52:39;;;;;;;19.48;12.75;;;13.60;78.30;;;;;;5093286;28;20073;-12
2022/09/24 05:55:07;;;;;;;16.80;12.95;;;13.60;79.30;;;;;;5093096;28;20082;-12
2022/09/24 05:57:33;;;;;;;18.73;13.50;;;13.70;79.70;;;;;;5093300;28;20031;-12
2022/09/24 05:59:59;;;;;;;17.08;11.60;;;13.70;79.80;;;;;;5093162;28;20036;-12
2022/09/24 06:02:25;;;;;;;18.65;12.85;;;13.80;79.30;;;;;;5092861;28;20488;-12
2022/09/24 06:04:51;;;;;;;14.55;10.32;;;13.90;79.20;;;;;;5092769;28;20113;-11
2022/09/24 06:07:17;;;;;;;17.20;11.85;;;13.90;78.40;;;;;;5091555;28;20027;-12
2022/09/24 06:09:43;;;;;;;18.45;11.90;;;14.00;78.20;;;;;;5092827;28;20070;-12
2022/09/24 06:12:09;;;;;;;15.35;11.05;;;14.00;78.30;;;;;;5092846;28;20028;-12
2022/09/24 06:14:36;;;;;;;14.27;10.82;;;14.10;78.10;;;;;;5093137;28;20024;-12
2022/09/24 06:17:01;;;;;;;17.30;11.77;;;14.20;78.30;;;;;;5092350;28;20131;-13
2022/09/24 06:19:28;;;;;;;17.50;12.63;;;14.40;78.80;;;;;;5093032;28;20115;-12
2022/09/24 06:21:53;;;;;;;16.60;12.20;;;14.40;78.90;;;;;;5093102;28;20032;-12
2022/09/24 06:24:19;;;;;;;18.95;12.40;;;14.50;78.10;;;;;;5092640;28;20032;-11
2022/09/24 06:26:45;;;;;;;15.02;10.45;;;14.50;78.10;;;;;;5092678;28;20034;-12
2022/09/24 06:29:12;;;;;;;14.95;10.95;;;14.60;77.60;;;;;;5092583;28;20067;-11
2022/09/24 06:31:38;;;;;;;16.15;11.38;;;14.80;77.50;;;;;;5092668;28;20035;-12
2022/09/24 06:34:03;;;;;;;17.90;10.77;;;14.90;77.00;;;;;;5092804;28;20028;-12
2022/09/24 06:36:29;;;;;;;18.25;10.75;;;14.90;76.50;;;;;;5091552;28;20531;-12
2022/09/24 06:38:57;;;;;;;13.15;9.63;;;15.10;76.40;;;;;;5096058;28;20032;-13
2022/09/24 06:41:23;;;;;;;13.73;10.20;;;15.20;75.90;;;;;;5096827;28;20063;-12
2022/09/24 06:43:52;;;;;;;20.02;13.10;;;15.20;75.70;;;;;;5096193;28;20027;-12
2022/09/24 06:46:18;;;;;;;16.45;10.98;;;15.30;75.30;;;;;;5096610;28;20050;-12
2022/09/24 06:48:44;;;;;;;19.25;10.75;;;15.40;74.90;;;;;;5094860;28;20032;-12
2022/09/24 06:51:09;;;;;;;15.77;11.82;;;15.50;74.60;;;;;;5096152;28;20024;-12
2022/09/24 06:53:35;;;;;;;14.77;10.13;;;15.60;74.40;;;;;;5096216;28;20463;-11
2022/09/24 06:56:03;;;;;;;17.42;12.30;;;15.70;74.00;;;;;;5096224;28;20073;-12
2022/09/24 06:58:29;;;;;;;18.17;11.98;;;15.90;73.90;;;;;;5095887;28;20050;-12
2022/09/24 07:01:01;;;;;;;17.35;12.63;;;16.00;74.10;;;;;;5094523;28;20498;-12
2022/09/24 07:03:29;;;;;;;17.35;11.57;;;16.00;73.10;;;;;;5095942;28;20028;-12
2022/09/24 07:05:58;;;;;;;18.30;12.55;;;16.20;73.20;;;;;;5096114;28;20083;-11
2022/09/24 07:08:24;;;;;;;15.52;11.23;;;16.40;72.00;;;;;;5095603;28;20030;-12
2022/09/24 07:10:53;;;;;;;18.92;12.10;;;16.50;71.60;;;;;;5095590;28;20024;-12
2022/09/24 07:13:20;;;;;;;16.08;11.77;;;16.70;71.00;;;;;;5095656;28;20072;-12
2022/09/24 07:15:47;;;;;;;15.27;10.10;;;16.70;70.20;;;;;;5095580;28;20062;-11
2022/09/24 07:18:13;;;;;;;14.90;11.38;;;16.80;70.40;;;;;;5095299;28;20044;-12
2022/09/24 07:20:39;;;;;;;16.13;11.10;;;16.90;70.00;;;;;;5096157;28;20028;-12
2022/09/24 07:23:08;;;;;;;13.98;10.88;;;17.00;69.00;;;;;;5095496;28;20028;-11
2022/09/24 07:25:36;;;;;;;18.33;12.10;;;17.10;69.00;;;;;;5095672;28;20028;-11
2022/09/24 07:28:14;;;;;;;14.90;10.73;;;17.30;68.60;;;;;;5094203;28;20540;-12
2022/09/24 07:30:41;;;;;;;16.50;12.07;;;17.40;68.30;;;;;;5096245;28;20020;-12
2022/09/24 07:33:07;;;;;;;12.63;9.63;;;17.40;66.90;;;;;;5095389;28;20043;-13
2022/09/24 07:35:36;;;;;;;16.20;10.05;;;17.50;67.10;;;;;;5095561;28;20056;-12
2022/09/24 07:38:04;;;;;;;15.23;10.65;;;17.60;66.60;;;;;;5095006;28;20395;-13
2022/09/24 07:40:31;;;;;;;17.02;12.00;;;17.80;66.40;;;;;;5095932;28;20430;-12
2022/09/24 07:42:58;;;;;;;14.35;10.93;;;17.90;65.90;;;;;;5094874;28;20020;-11
2022/09/24 07:45:30;;;;;;;15.02;11.23;;;18.00;65.20;;;;;;5095032;28;20434;-13
2022/09/24 07:48:01;;;;;;;14.70;10.40;;;18.20;64.00;;;;;;5094972;28;20383;-12
2022/09/24 07:50:28;;;;;;;17.88;10.68;;;18.30;63.70;;;;;;5093721;28;20028;-12
2022/09/24 07:52:54;;;;;;;15.07;11.35;;;18.40;63.80;;;;;;5094897;28;20030;-12
2022/09/24 07:55:21;;;;;;;15.43;11.13;;;18.60;62.40;;;;;;5094808;28;20035;-12
2022/09/24 07:57:50;;;;;;;12.40;9.07;;;18.70;63.40;;;;;;5094935;28;20028;-12
2022/09/24 08:00:17;;;;;;;14.00;10.35;;;18.80;63.80;;;;;;5094747;28;20379;-13
2022/09/24 08:02:47;;;;;;;14.95;9.57;;;19.00;62.50;;;;;;5094993;28;20111;-15
2022/09/24 08:05:15;;;;;;;15.35;10.18;;;19.30;60.90;;;;;;5094894;28;20095;-13
2022/09/24 08:07:41;;;;;;;13.98;9.90;;;19.50;60.20;;;;;;5094489;28;20103;-13
2022/09/24 08:10:08;;;;;;;14.35;9.52;;;19.70;59.20;;;;;;5094869;28;20043;-13
2022/09/24 08:12:34;;;;;;;15.20;9.70;;;19.90;59.50;;;;;;5094710;28;20024;-13
2022/09/24 08:15:00;;;;;;;12.98;9.43;;;20.00;58.80;;;;;;5094531;28;20074;-14
2022/09/24 08:17:26;;;;;;;13.52;8.82;;;20.20;59.40;;;;;;5094377;28;20083;-13
2022/09/24 08:19:55;;;;;;;15.25;9.35;;;20.00;58.10;;;;;;5094372;28;20064;-13
2022/09/24 08:22:23;;;;;;;13.73;9.27;;;19.90;58.10;;;;;;5094163;28;20031;-13
2022/09/24 08:24:49;;;;;;;13.25;8.93;;;20.00;57.60;;;;;;5093985;28;20038;-12
2022/09/24 08:27:16;;;;;;;13.98;8.68;;;20.10;57.40;;;;;;5094201;28;20024;-13
2022/09/24 08:29:42;;;;;;;13.00;8.95;;;20.40;56.30;;;;;;5094552;28;20039;-13
2022/09/24 08:32:08;;;;;;;9.90;6.78;;;20.70;56.00;;;;;;5094434;28;20022;-12
2022/09/24 08:34:37;;;;;;;11.60;8.27;;;21.00;56.40;;;;;;5094372;28;20032;-13
2022/09/24 08:37:04;;;;;;;11.38;7.68;;;21.30;54.50;;;;;;5094974;28;20024;-13
2022/09/24 08:39:32;;;;;;;10.98;7.78;;;21.40;53.10;;;;;;5093815;28;20495;-13
2022/09/24 08:42:01;;;;;;;9.98;6.80;;;21.40;53.20;;;;;;5093965;28;20509;-13
2022/09/24 08:47:47;;;;;;;10.25;7.75;;;21.80;53.20;;;;;;5094583;28;20035;-13
2022/09/24 08:50:23;;;;;;;9.43;7.00;;;21.90;51.80;;;;;;5093857;28;20428;-13
2022/09/24 08:53:10;;;;;;;13.25;7.75;;;22.00;51.40;;;;;;5094065;28;20055;-13
2022/09/24 08:55:46;;;;;;;9.57;6.07;;;22.10;50.90;;;;;;5094008;28;20081;-13
2022/09/24 08:58:45;;;;;;;17.15;8.02;;;22.20;52.50;;;;;;5093979;28;20055;-13
2022/09/24 09:01:11;;;;;;;9.77;6.30;;;22.20;50.10;;;;;;5092818;28;20483;-12
2022/09/24 09:03:46;;;;;;;48.88;9.85;;;22.20;52.10;;;;;;5093826;28;20387;-12
2022/09/24 09:06:37;;;;;;;16.67;7.63;;;22.10;52.50;;;;;;5093621;28;20069;-12
2022/09/24 09:09:20;;;;;;;12.15;6.82;;;21.90;50.70;;;;;;5056981;28;20063;-13
2022/09/24 09:11:50;;;;;;;15.23;6.85;;;21.70;51.90;;;;;;5093525;28;20039;-13
2022/09/24 09:14:22;;;;;;;10.68;7.43;;;21.70;52.60;;;;;;5093729;28;20490;-13
2022/09/24 09:17:14;;;;;;;12.10;7.50;;;21.60;52.90;;;;;;5091824;28;20097;-13
2022/09/24 09:19:42;;;;;;;11.15;7.63;;;21.40;53.40;;;;;;5093348;28;20372;-14
2022/09/24 09:22:14;;;;;;;12.23;6.40;;;21.40;54.20;;;;;;5093932;28;20071;-13
2022/09/24 09:24:56;;;;;;;10.30;7.20;;;21.30;53.90;;;;;;5093557;28;20111;-13
2022/09/24 09:27:23;;;;;;;22.30;6.93;;;21.40;53.40;;;;;;5093278;28;20380;-14
2022/09/24 09:29:58;;;;;;;9.05;6.28;;;21.40;53.90;;;;;;5093563;28;20032;-13
2022/09/24 09:32:48;;;;;;;11.45;6.45;;;21.50;53.90;;;;;;5093290;28;20034;-14
2022/09/24 09:35:20;;;;;;;11.23;6.30;;;21.50;53.30;;;;;;5093198;28;20020;-11
2022/09/24 09:38:16;;;;;;;10.25;6.85;;;21.40;53.30;;;;;;5093303;28;20027;-11
2022/09/24 09:40:51;;;;;;;11.48;6.18;;;21.50;52.90;;;;;;5093139;28;20395;-12
2022/09/24 09:43:18;;;;;;;9.43;6.13;;;21.40;52.90;;;;;;5093199;28;20476;-12
2022/09/24 09:46:09;;;;;;;10.18;5.55;;;21.20;53.60;;;;;;5093033;28;20077;-12
2022/09/24 09:48:44;;;;;;;11.23;6.20;;;21.20;52.30;;;;;;5093233;28;20115;-12
2022/09/24 09:51:18;;;;;;;8.18;5.50;;;21.20;53.50;;;;;;5092954;28;20384;-12
2022/09/24 09:53:58;;;;;;;9.20;6.15;;;21.20;53.50;;;;;;5092987;28;20032;-11
2022/09/24 09:56:32;;;;;;;10.93;6.60;;;21.10;53.50;;;;;;5093359;28;20024;-11
2022/09/24 09:59:17;;;;;;;7.97;5.35;;;21.00;54.10;;;;;;5093150;28;20035;-12
2022/09/24 10:01:48;;;;;;;10.55;5.70;;;20.90;54.40;;;;;;5093001;28;20028;-13
2022/09/24 10:04:29;;;;;;;8.43;5.90;;;20.80;54.70;;;;;;5093141;28;20085;-13
2022/09/24 10:07:22;;;;;;;7.20;5.45;;;20.70;55.10;;;;;;5093051;28;20055;-13
2022/09/24 10:10:00;;;;;;;7.30;5.47;;;20.70;55.30;;;;;;5089241;28;20444;-12
2022/09/24 10:12:27;;;;;;;8.82;5.40;;;20.80;55.40;;;;;;5096499;28;20539;-12
2022/09/24 10:15:14;;;;;;;9.15;5.97;;;20.80;55.30;;;;;;5096903;28;20028;-13
2022/09/24 10:17:43;;;;;;;7.18;5.63;;;20.90;55.70;;;;;;5095252;28;20055;-13
2022/09/24 10:20:32;;;;;;;9.73;6.20;;;20.90;55.90;;;;;;5096992;28;20051;-13
2022/09/24 10:23:05;;;;;;;7.13;5.05;;;20.90;55.30;;;;;;5096602;28;20024;-13
2022/09/24 10:25:35;;;;;;;10.10;5.70;;;20.90;55.70;;;;;;5096624;28;20029;-12
2022/09/24 10:30:59;;;;;;;8.75;5.55;;;20.90;55.80;;;;;;5096951;28;20023;-12
2022/09/24 10:33:34;;;;;;;9.52;6.70;;;20.90;55.70;;;;;;5096508;28;20032;-13
2022/09/24 10:36:13;;;;;;;9.40;5.95;;;20.90;56.90;;;;;;5096811;28;20105;-12
2022/09/24 10:38:39;;;;;;;9.95;5.93;;;20.90;56.50;;;;;;5096485;28;20036;-12
2022/09/24 10:41:28;;;;;;;10.27;5.78;;;20.90;56.50;;;;;;5096146;28;20029;-13
2022/09/24 10:43:56;;;;;;;7.78;5.38;;;20.90;56.40;;;;;;5096568;28;20055;-13
2022/09/24 10:46:46;;;;;;;7.40;4.90;;;20.90;56.80;;;;;;5096455;28;20085;-12
2022/09/24 10:49:35;;;;;;;10.40;6.53;;;20.80;56.80;;;;;;5096521;28;20039;-13
2022/09/24 10:52:26;;;;;;;10.90;6.10;;;20.90;57.40;;;;;;5096498;28;20111;-13
2022/09/24 10:54:55;;;;;;;10.82;6.47;;;20.90;56.90;;;;;;5096338;28;20020;-12
2022/09/24 10:57:55;;;;;;;7.95;5.50;;;20.90;56.00;;;;;;5096181;28;20065;-13
2022/09/24 11:00:24;;;;;;;7.53;5.50;;;20.80;54.70;;;;;;5095931;28;20047;-12
2022/09/24 11:02:50;;;;;;;9.13;6.00;;;20.70;55.30;;;;;;5095812;28;20070;-12
2022/09/24 11:05:23;;;;;;;10.85;6.45;;;20.70;56.40;;;;;;5096187;28;20040;-13
2022/09/24 11:08:25;;;;;;;8.93;5.63;;;20.60;56.80;;;;;;5095895;28;20069;-13
2022/09/24 11:11:13;;;;;;;10.60;6.25;;;20.60;56.50;;;;;;5095591;28;20028;-13
2022/09/24 11:13:53;;;;;;;11.57;6.65;;;20.50;58.00;;;;;;5095979;28;20024;-13
2022/09/24 11:17:09;;;;;;;9.45;6.32;;;20.50;57.10;;;;;;5095735;28;20060;-12
2022/09/24 11:19:59;;;;;;;12.02;7.30;;;20.40;57.10;;;;;;5013470;28;20061;-14
2022/09/24 11:22:37;;;;;;;10.10;6.00;;;20.40;57.20;;;;;;5012896;28;20441;-12
2022/09/24 11:25:28;;;;;;;11.30;6.03;;;20.40;57.40;;;;;;5071505;28;20034;-13
2022/09/24 11:28:13;;;;;;;10.32;5.63;;;20.30;57.50;;;;;;5095701;28;20032;-13
2022/09/24 11:30:48;;;;;;;9.75;5.85;;;20.30;57.70;;;;;;5095739;28;20028;-13
2022/09/24 11:33:44;;;;;;;12.50;6.90;;;20.30;57.80;;;;;;5095296;28;20028;-13
2022/09/24 11:36:29;;;;;;;15.23;9.05;;;20.30;58.60;;;;;;5094151;28;20024;-13
2022/09/24 11:39:20;;;;;;;11.55;8.88;;;20.40;59.10;;;;;;5094856;28;20089;-11
2022/09/24 11:41:56;;;;;;;15.63;10.70;;;20.40;58.80;;;;;;5095834;28;20025;-11
2022/09/24 11:44:37;;;;;;;14.23;9.63;;;20.40;58.20;;;;;;5095480;28;20036;-11
2022/09/24 11:47:11;;;;;;;16.73;9.05;;;20.40;57.90;;;;;;5095189;28;20081;-11
2022/09/24 11:49:58;;;;;;;13.10;8.23;;;20.50;57.90;;;;;;5095245;28;20026;-12
2022/09/24 11:52:51;;;;;;;10.85;6.63;;;20.50;58.90;;;;;;5095280;28;20024;-10
2022/09/24 11:55:33;;;;;;;10.80;7.03;;;20.60;58.60;;;;;;5094990;28;20039;-12
2022/09/24 11:58:29;;;;;;;10.98;6.03;;;20.70;58.00;;;;;;5095137;28;20115;-11
2022/09/24 12:01:05;;;;;;;11.82;6.15;;;20.70;57.60;;;;;;5094567;28;20024;-11
2022/09/24 12:03:44;;;;;;;10.60;6.13;;;20.70;57.70;;;;;;5095064;28;20032;-12
2022/09/24 12:06:16;;;;;;;7.45;5.18;;;20.70;58.30;;;;;;5094686;28;20110;-11
2022/09/24 12:08:54;;;;;;;7.75;5.40;;;20.80;58.70;;;;;;5093345;28;20501;-11
2022/09/24 12:11:35;;;;;;;8.95;5.78;;;20.70;58.10;;;;;;5094622;28;20031;-12
2022/09/24 12:14:11;;;;;;;11.10;5.80;;;20.80;57.70;;;;;;5094562;28;20066;-12
2022/09/24 12:16:40;;;;;;;6.93;5.40;;;20.80;56.70;;;;;;5094216;28;20060;-12
2022/09/24 12:19:21;;;;;;;7.60;4.55;;;20.80;57.10;;;;;;5094162;28;20024;-12
2022/09/24 12:21:51;;;;;;;7.68;4.57;;;20.70;57.30;;;;;;5094430;28;20081;-13
2022/09/24 12:24:33;;;;;;;7.93;5.15;;;20.70;57.00;;;;;;5094263;28;20082;-12
2022/09/24 12:27:09;;;;;;;10.77;5.50;;;20.50;56.20;;;;;;5094240;28;20020;-11
2022/09/24 12:32:55;;;;;;;11.65;4.60;;;20.30;57.00;;;;;;5094326;28;20035;-13
2022/09/24 12:35:27;;;;;;;9.13;5.03;;;20.30;57.80;;;;;;5093511;28;20024;-13
2022/09/24 12:38:19;;;;;;;13.23;5.18;;;20.30;57.60;;;;;;5094196;28;20039;-12
2022/09/24 12:40:54;;;;;;;6.90;4.75;;;20.30;58.00;;;;;;5094407;28;20111;-12
2022/09/24 12:43:24;;;;;;;11.60;4.35;;;20.40;57.90;;;;;;5094323;28;20035;-12
2022/09/24 12:46:00;;;;;;;8.13;4.70;;;20.30;58.00;;;;;;5094026;28;20459;-12
2022/09/24 12:48:29;;;;;;;7.85;4.88;;;20.30;58.40;;;;;;5094158;28;20047;-12
2022/09/24 12:50:59;;;;;;;7.35;5.28;;;20.20;58.40;;;;;;5093965;28;20032;-12
2022/09/24 12:53:33;;;;;;;6.97;5.07;;;20.20;58.70;;;;;;5094144;28;20024;-12
2022/09/24 12:56:01;;;;;;;10.40;5.53;;;20.30;59.00;;;;;;5093816;28;20396;-13
2022/09/24 12:58:37;;;;;;;10.60;5.72;;;20.30;58.80;;;;;;5093956;28;20032;-12
2022/09/24 13:01:12;;;;;;;9.60;4.80;;;20.40;59.00;;;;;;5093564;28;20028;-12
2022/09/24 13:03:41;;;;;;;11.60;4.75;;;20.40;58.50;;;;;;5094383;28;20024;-12
2022/09/24 13:06:33;;;;;;;8.60;4.80;;;20.50;58.40;;;;;;5093940;28;20027;-12
2022/09/24 13:09:00;;;;;;;5.75;4.20;;;20.50;58.50;;;;;;5093554;28;20024;-12
2022/09/24 13:11:36;;;;;;;6.57;4.72;;;20.60;58.20;;;;;;5094133;28;20084;-11
2022/09/24 13:14:11;;;;;;;5.88;4.18;;;20.70;58.30;;;;;;5093488;28;20107;-12
2022/09/24 13:16:40;;;;;;;11.45;5.68;;;20.90;58.00;;;;;;5093260;28;20151;-11
2022/09/24 13:19:26;;;;;;;13.60;8.57;;;21.00;57.80;;;;;;5093267;28;20031;-12
2022/09/24 13:22:02;;;;;;;11.90;6.47;;;21.00;57.60;;;;;;5093415;28;20032;-13
2022/09/24 13:24:36;;;;;;;10.30;6.15;;;21.00;58.00;;;;;;5093311;28;20056;-14